sensor_id;sensor_type;location;lat;lon;timestamp;P1;durP1;ratioP1;P2;durP2;ratioP2
64598;SDS011;51008;51.504;11.548;2024-02-26T00:01:04;11.82;;;5.70;;
64598;SDS011;51008;51.504;11.548;2024-02-26T00:06:05;11.20;;;5.35;;
64598;SDS011;51008;51.504;11.548;2024-02-26T00:11:07;10.18;;;5.60;;
64598;SDS011;51008;51.504;11.548;2024-02-26T00:16:08;9.48;;;5.47;;
64598;SDS011;51008;51.504;11.548;2024-02-26T00:21:09;9.65;;;6.05;;
64598;SDS011;51008;51.504;11.548;2024-02-26T00:26:10;10.13;;;5.57;;
64598;SDS011;51008;51.504;11.548;2024-02-26T00:31:12;10.45;;;5.93;;
64598;SDS011;51008;51.504;11.548;2024-02-26T00:36:13;11.10;;;6.60;;
64598;SDS011;51008;51.504;11.548;2024-02-26T00:41:14;12.27;;;5.82;;
64598;SDS011;51008;51.504;11.548;2024-02-26T00:46:15;12.82;;;6.50;;
64598;SDS011;51008;51.504;11.548;2024-02-26T00:51:16;13.23;;;6.47;;
64598;SDS011;51008;51.504;11.548;2024-02-26T00:56:17;11.30;;;5.95;;
64598;SDS011;51008;51.504;11.548;2024-02-26T01:01:19;11.60;;;6.28;;
64598;SDS011;51008;51.504;11.548;2024-02-26T01:06:20;12.07;;;6.75;;
64598;SDS011;51008;51.504;11.548;2024-02-26T01:11:21;13.05;;;6.55;;
64598;SDS011;51008;51.504;11.548;2024-02-26T01:16:23;10.95;;;6.30;;
64598;SDS011;51008;51.504;11.548;2024-02-26T01:21:24;13.40;;;7.43;;
64598;SDS011;51008;51.504;11.548;2024-02-26T01:26:25;14.68;;;7.57;;
64598;SDS011;51008;51.504;11.548;2024-02-26T01:31:26;14.15;;;7.00;;
64598;SDS011;51008;51.504;11.548;2024-02-26T01:36:28;11.45;;;7.03;;
64598;SDS011;51008;51.504;11.548;2024-02-26T01:41:29;12.88;;;7.32;;
64598;SDS011;51008;51.504;11.548;2024-02-26T01:46:30;13.75;;;7.50;;
64598;SDS011;51008;51.504;11.548;2024-02-26T01:51:33;17.13;;;8.10;;
64598;SDS011;51008;51.504;11.548;2024-02-26T01:56:36;16.90;;;8.48;;
64598;SDS011;51008;51.504;11.548;2024-02-26T02:01:39;18.13;;;8.20;;
64598;SDS011;51008;51.504;11.548;2024-02-26T02:06:45;14.55;;;7.60;;
64598;SDS011;51008;51.504;11.548;2024-02-26T02:11:47;14.63;;;7.40;;
64598;SDS011;51008;51.504;11.548;2024-02-26T02:16:48;15.52;;;7.95;;
64598;SDS011;51008;51.504;11.548;2024-02-26T02:21:49;15.48;;;7.90;;
64598;SDS011;51008;51.504;11.548;2024-02-26T02:26:50;13.38;;;7.20;;
64598;SDS011;51008;51.504;11.548;2024-02-26T02:31:52;15.13;;;7.47;;
64598;SDS011;51008;51.504;11.548;2024-02-26T02:36:53;15.43;;;8.35;;
64598;SDS011;51008;51.504;11.548;2024-02-26T02:41:55;16.60;;;8.18;;
64598;SDS011;51008;51.504;11.548;2024-02-26T02:46:56;18.55;;;8.93;;
64598;SDS011;51008;51.504;11.548;2024-02-26T02:51:57;15.75;;;8.63;;
64598;SDS011;51008;51.504;11.548;2024-02-26T02:56:58;17.35;;;8.95;;
64598;SDS011;51008;51.504;11.548;2024-02-26T03:01:59;19.13;;;8.85;;
64598;SDS011;51008;51.504;11.548;2024-02-26T03:07:01;18.23;;;9.07;;
64598;SDS011;51008;51.504;11.548;2024-02-26T03:12:02;15.95;;;8.48;;
64598;SDS011;51008;51.504;11.548;2024-02-26T03:17:03;19.88;;;9.25;;
64598;SDS011;51008;51.504;11.548;2024-02-26T03:22:05;16.65;;;9.63;;
64598;SDS011;51008;51.504;11.548;2024-02-26T03:27:06;16.90;;;8.98;;
64598;SDS011;51008;51.504;11.548;2024-02-26T03:32:07;19.48;;;9.27;;
64598;SDS011;51008;51.504;11.548;2024-02-26T03:37:08;18.13;;;9.63;;
64598;SDS011;51008;51.504;11.548;2024-02-26T03:42:09;19.08;;;10.05;;
64598;SDS011;51008;51.504;11.548;2024-02-26T03:47:10;20.55;;;10.40;;
64598;SDS011;51008;51.504;11.548;2024-02-26T03:52:12;22.35;;;11.07;;
64598;SDS011;51008;51.504;11.548;2024-02-26T03:57:13;20.02;;;10.30;;
64598;SDS011;51008;51.504;11.548;2024-02-26T04:02:15;22.33;;;11.40;;
64598;SDS011;51008;51.504;11.548;2024-02-26T04:07:17;22.92;;;11.98;;
64598;SDS011;51008;51.504;11.548;2024-02-26T04:12:18;23.70;;;11.30;;
64598;SDS011;51008;51.504;11.548;2024-02-26T04:17:19;24.38;;;11.65;;
64598;SDS011;51008;51.504;11.548;2024-02-26T04:22:21;25.98;;;13.82;;
64598;SDS011;51008;51.504;11.548;2024-02-26T04:27:22;25.42;;;12.98;;
64598;SDS011;51008;51.504;11.548;2024-02-26T04:32:23;22.80;;;12.68;;
64598;SDS011;51008;51.504;11.548;2024-02-26T04:37:25;25.48;;;12.73;;
64598;SDS011;51008;51.504;11.548;2024-02-26T04:42:26;27.85;;;13.00;;
64598;SDS011;51008;51.504;11.548;2024-02-26T04:47:28;27.48;;;12.73;;
64598;SDS011;51008;51.504;11.548;2024-02-26T04:52:30;27.23;;;13.35;;
64598;SDS011;51008;51.504;11.548;2024-02-26T04:57:31;26.92;;;13.63;;
64598;SDS011;51008;51.504;11.548;2024-02-26T05:02:32;25.20;;;13.45;;
64598;SDS011;51008;51.504;11.548;2024-02-26T05:07:34;27.55;;;14.73;;
64598;SDS011;51008;51.504;11.548;2024-02-26T05:12:40;27.40;;;13.02;;
64598;SDS011;51008;51.504;11.548;2024-02-26T05:17:41;34.22;;;15.13;;
64598;SDS011;51008;51.504;11.548;2024-02-26T05:22:44;29.13;;;14.45;;
64598;SDS011;51008;51.504;11.548;2024-02-26T05:27:46;26.50;;;13.73;;
64598;SDS011;51008;51.504;11.548;2024-02-26T05:32:48;27.85;;;13.85;;
64598;SDS011;51008;51.504;11.548;2024-02-26T05:37:50;23.42;;;12.80;;
64598;SDS011;51008;51.504;11.548;2024-02-26T05:43:09;24.65;;;13.88;;
64598;SDS011;51008;51.504;11.548;2024-02-26T05:48:10;28.20;;;15.55;;
64598;SDS011;51008;51.504;11.548;2024-02-26T05:53:12;28.13;;;15.40;;
64598;SDS011;51008;51.504;11.548;2024-02-26T05:58:13;35.55;;;17.67;;
64598;SDS011;51008;51.504;11.548;2024-02-26T06:03:33;37.65;;;18.92;;
64598;SDS011;51008;51.504;11.548;2024-02-26T06:08:34;38.25;;;19.42;;
64598;SDS011;51008;51.504;11.548;2024-02-26T06:13:35;40.10;;;19.70;;
64598;SDS011;51008;51.504;11.548;2024-02-26T06:18:37;36.78;;;18.48;;
64598;SDS011;51008;51.504;11.548;2024-02-26T06:23:41;38.47;;;19.85;;
64598;SDS011;51008;51.504;11.548;2024-02-26T06:28:42;39.55;;;18.52;;
64598;SDS011;51008;51.504;11.548;2024-02-26T06:33:43;34.55;;;18.40;;
64598;SDS011;51008;51.504;11.548;2024-02-26T06:39:02;37.72;;;19.10;;
64598;SDS011;51008;51.504;11.548;2024-02-26T06:44:03;41.08;;;19.35;;
64598;SDS011;51008;51.504;11.548;2024-02-26T06:49:05;32.05;;;17.10;;
64598;SDS011;51008;51.504;11.548;2024-02-26T06:54:06;33.05;;;16.52;;
64598;SDS011;51008;51.504;11.548;2024-02-26T06:59:07;32.72;;;17.63;;
64598;SDS011;51008;51.504;11.548;2024-02-26T07:04:08;30.50;;;16.08;;
64598;SDS011;51008;51.504;11.548;2024-02-26T07:09:09;25.92;;;14.57;;
64598;SDS011;51008;51.504;11.548;2024-02-26T07:14:12;27.08;;;14.93;;
64598;SDS011;51008;51.504;11.548;2024-02-26T07:19:13;28.58;;;14.45;;
64598;SDS011;51008;51.504;11.548;2024-02-26T07:24:14;28.83;;;15.82;;
64598;SDS011;51008;51.504;11.548;2024-02-26T07:29:15;25.10;;;15.52;;
64598;SDS011;51008;51.504;11.548;2024-02-26T07:34:16;31.40;;;15.07;;
64598;SDS011;51008;51.504;11.548;2024-02-26T07:39:18;27.60;;;15.15;;
64598;SDS011;51008;51.504;11.548;2024-02-26T07:44:19;29.73;;;15.05;;
64598;SDS011;51008;51.504;11.548;2024-02-26T07:49:20;33.15;;;16.75;;
64598;SDS011;51008;51.504;11.548;2024-02-26T07:54:21;29.15;;;16.02;;
64598;SDS011;51008;51.504;11.548;2024-02-26T07:59:23;30.23;;;17.17;;
64598;SDS011;51008;51.504;11.548;2024-02-26T08:04:24;31.83;;;16.40;;
64598;SDS011;51008;51.504;11.548;2024-02-26T08:09:25;26.40;;;15.90;;
64598;SDS011;51008;51.504;11.548;2024-02-26T08:14:26;27.23;;;15.38;;
64598;SDS011;51008;51.504;11.548;2024-02-26T08:19:46;28.40;;;15.18;;
64598;SDS011;51008;51.504;11.548;2024-02-26T08:25:02;27.48;;;14.77;;
64598;SDS011;51008;51.504;11.548;2024-02-26T08:30:04;27.67;;;16.35;;
64598;SDS011;51008;51.504;11.548;2024-02-26T08:35:05;30.08;;;15.23;;
64598;SDS011;51008;51.504;11.548;2024-02-26T08:40:07;26.25;;;15.25;;
64598;SDS011;51008;51.504;11.548;2024-02-26T08:45:08;26.40;;;14.13;;
64598;SDS011;51008;51.504;11.548;2024-02-26T08:50:10;25.35;;;13.75;;
64598;SDS011;51008;51.504;11.548;2024-02-26T08:55:11;27.48;;;13.90;;
64598;SDS011;51008;51.504;11.548;2024-02-26T09:00:12;30.25;;;14.40;;
64598;SDS011;51008;51.504;11.548;2024-02-26T09:05:14;23.50;;;13.73;;
64598;SDS011;51008;51.504;11.548;2024-02-26T09:10:15;24.75;;;14.27;;
64598;SDS011;51008;51.504;11.548;2024-02-26T09:15:16;27.65;;;14.82;;
64598;SDS011;51008;51.504;11.548;2024-02-26T09:20:18;22.15;;;13.23;;
64598;SDS011;51008;51.504;11.548;2024-02-26T09:25:19;27.90;;;14.00;;
64598;SDS011;51008;51.504;11.548;2024-02-26T09:30:20;26.63;;;13.48;;
64598;SDS011;51008;51.504;11.548;2024-02-26T09:35:21;23.40;;;14.15;;
64598;SDS011;51008;51.504;11.548;2024-02-26T09:40:23;21.55;;;13.45;;
64598;SDS011;51008;51.504;11.548;2024-02-26T09:45:25;24.90;;;13.63;;
64598;SDS011;51008;51.504;11.548;2024-02-26T09:50:28;22.85;;;14.15;;
64598;SDS011;51008;51.504;11.548;2024-02-26T09:55:29;23.50;;;13.32;;
64598;SDS011;51008;51.504;11.548;2024-02-26T10:00:31;25.77;;;13.77;;
64598;SDS011;51008;51.504;11.548;2024-02-26T10:05:33;20.67;;;12.38;;
64598;SDS011;51008;51.504;11.548;2024-02-26T10:10:34;20.17;;;12.30;;
64598;SDS011;51008;51.504;11.548;2024-02-26T10:15:37;21.48;;;12.38;;
64598;SDS011;51008;51.504;11.548;2024-02-26T10:20:38;23.73;;;12.27;;
64598;SDS011;51008;51.504;11.548;2024-02-26T10:25:51;22.33;;;12.75;;
64598;SDS011;51008;51.504;11.548;2024-02-26T10:30:54;19.15;;;10.98;;
64598;SDS011;51008;51.504;11.548;2024-02-26T10:35:55;18.52;;;10.60;;
64598;SDS011;51008;51.504;11.548;2024-02-26T10:40:57;17.90;;;10.75;;
64598;SDS011;51008;51.504;11.548;2024-02-26T10:45:58;18.30;;;10.38;;
64598;SDS011;51008;51.504;11.548;2024-02-26T10:50:59;18.05;;;11.70;;
64598;SDS011;51008;51.504;11.548;2024-02-26T10:56:02;19.80;;;11.02;;
64598;SDS011;51008;51.504;11.548;2024-02-26T11:01:04;17.20;;;9.57;;
64598;SDS011;51008;51.504;11.548;2024-02-26T11:06:07;19.90;;;9.90;;
64598;SDS011;51008;51.504;11.548;2024-02-26T11:11:09;17.35;;;9.82;;
64598;SDS011;51008;51.504;11.548;2024-02-26T11:16:11;17.65;;;10.43;;
64598;SDS011;51008;51.504;11.548;2024-02-26T11:21:12;20.25;;;10.93;;
64598;SDS011;51008;51.504;11.548;2024-02-26T11:26:16;16.60;;;9.43;;
64598;SDS011;51008;51.504;11.548;2024-02-26T11:31:18;16.98;;;10.02;;
64598;SDS011;51008;51.504;11.548;2024-02-26T11:36:19;17.17;;;9.98;;
64598;SDS011;51008;51.504;11.548;2024-02-26T11:41:21;20.30;;;10.90;;
64598;SDS011;51008;51.504;11.548;2024-02-26T11:46:29;16.55;;;10.10;;
64598;SDS011;51008;51.504;11.548;2024-02-26T11:51:32;19.98;;;10.32;;
64598;SDS011;51008;51.504;11.548;2024-02-26T11:56:35;18.58;;;11.02;;
64598;SDS011;51008;51.504;11.548;2024-02-26T12:01:42;20.58;;;11.20;;
64598;SDS011;51008;51.504;11.548;2024-02-26T12:06:49;18.30;;;10.95;;
64598;SDS011;51008;51.504;11.548;2024-02-26T12:11:52;19.50;;;11.93;;
64598;SDS011;51008;51.504;11.548;2024-02-26T12:16:56;19.87;;;11.80;;
64598;SDS011;51008;51.504;11.548;2024-02-26T12:21:57;23.33;;;12.50;;
64598;SDS011;51008;51.504;11.548;2024-02-26T12:26:58;21.50;;;12.80;;
64598;SDS011;51008;51.504;11.548;2024-02-26T12:31:59;22.73;;;13.32;;
64598;SDS011;51008;51.504;11.548;2024-02-26T12:37:02;21.52;;;12.93;;
64598;SDS011;51008;51.504;11.548;2024-02-26T12:42:04;20.00;;;12.93;;
64598;SDS011;51008;51.504;11.548;2024-02-26T12:47:05;22.65;;;13.15;;
64598;SDS011;51008;51.504;11.548;2024-02-26T12:52:06;21.30;;;12.60;;
64598;SDS011;51008;51.504;11.548;2024-02-26T12:57:08;22.58;;;14.07;;
64598;SDS011;51008;51.504;11.548;2024-02-26T13:02:10;22.73;;;13.65;;
64598;SDS011;51008;51.504;11.548;2024-02-26T13:07:11;22.15;;;14.10;;
64598;SDS011;51008;51.504;11.548;2024-02-26T13:12:12;22.25;;;13.23;;
64598;SDS011;51008;51.504;11.548;2024-02-26T13:17:14;25.95;;;14.93;;
64598;SDS011;51008;51.504;11.548;2024-02-26T13:22:21;26.15;;;14.73;;
64598;SDS011;51008;51.504;11.548;2024-02-26T13:27:23;27.77;;;13.55;;
64598;SDS011;51008;51.504;11.548;2024-02-26T13:32:24;25.33;;;15.70;;
64598;SDS011;51008;51.504;11.548;2024-02-26T13:37:26;24.58;;;14.13;;
64598;SDS011;51008;51.504;11.548;2024-02-26T13:42:27;24.98;;;14.63;;
64598;SDS011;51008;51.504;11.548;2024-02-26T13:47:28;24.77;;;15.07;;
64598;SDS011;51008;51.504;11.548;2024-02-26T13:52:29;24.58;;;13.90;;
64598;SDS011;51008;51.504;11.548;2024-02-26T13:57:30;21.55;;;12.98;;
64598;SDS011;51008;51.504;11.548;2024-02-26T14:02:32;24.48;;;14.10;;
64598;SDS011;51008;51.504;11.548;2024-02-26T14:07:33;24.33;;;13.60;;
64598;SDS011;51008;51.504;11.548;2024-02-26T14:12:34;23.38;;;13.40;;
64598;SDS011;51008;51.504;11.548;2024-02-26T14:17:35;21.65;;;12.43;;
64598;SDS011;51008;51.504;11.548;2024-02-26T14:22:36;22.98;;;13.38;;
64598;SDS011;51008;51.504;11.548;2024-02-26T14:27:37;23.55;;;13.18;;
64598;SDS011;51008;51.504;11.548;2024-02-26T14:32:39;23.65;;;12.93;;
64598;SDS011;51008;51.504;11.548;2024-02-26T14:37:40;20.23;;;11.63;;
64598;SDS011;51008;51.504;11.548;2024-02-26T14:42:41;23.13;;;12.32;;
64598;SDS011;51008;51.504;11.548;2024-02-26T14:47:42;19.02;;;10.77;;
64598;SDS011;51008;51.504;11.548;2024-02-26T14:52:44;20.25;;;10.80;;
64598;SDS011;51008;51.504;11.548;2024-02-26T14:57:45;20.50;;;10.70;;
64598;SDS011;51008;51.504;11.548;2024-02-26T15:02:46;22.50;;;12.80;;
64598;SDS011;51008;51.504;11.548;2024-02-26T15:07:47;21.60;;;12.73;;
64598;SDS011;51008;51.504;11.548;2024-02-26T15:12:48;25.60;;;13.88;;
64598;SDS011;51008;51.504;11.548;2024-02-26T15:17:50;18.50;;;12.00;;
64598;SDS011;51008;51.504;11.548;2024-02-26T15:22:51;20.38;;;13.43;;
64598;SDS011;51008;51.504;11.548;2024-02-26T15:27:52;19.15;;;12.13;;
64598;SDS011;51008;51.504;11.548;2024-02-26T15:32:53;19.02;;;11.55;;
64598;SDS011;51008;51.504;11.548;2024-02-26T15:37:54;18.23;;;11.02;;
64598;SDS011;51008;51.504;11.548;2024-02-26T15:42:55;17.75;;;10.68;;
64598;SDS011;51008;51.504;11.548;2024-02-26T15:47:56;16.75;;;10.05;;
64598;SDS011;51008;51.504;11.548;2024-02-26T15:52:58;16.77;;;9.77;;
64598;SDS011;51008;51.504;11.548;2024-02-26T15:57:59;18.05;;;10.23;;
64598;SDS011;51008;51.504;11.548;2024-02-26T16:03:00;29.45;;;12.75;;
64598;SDS011;51008;51.504;11.548;2024-02-26T16:08:03;20.60;;;11.05;;
64598;SDS011;51008;51.504;11.548;2024-02-26T16:18:28;16.10;;;10.10;;
64598;SDS011;51008;51.504;11.548;2024-02-26T16:23:29;18.08;;;9.48;;
64598;SDS011;51008;51.504;11.548;2024-02-26T16:28:30;19.77;;;9.82;;
64598;SDS011;51008;51.504;11.548;2024-02-26T16:33:32;18.75;;;10.43;;
64598;SDS011;51008;51.504;11.548;2024-02-26T16:38:33;15.45;;;9.50;;
64598;SDS011;51008;51.504;11.548;2024-02-26T16:43:34;24.98;;;12.27;;
64598;SDS011;51008;51.504;11.548;2024-02-26T16:48:55;28.60;;;15.15;;
64598;SDS011;51008;51.504;11.548;2024-02-26T16:54:15;32.45;;;17.77;;
64598;SDS011;51008;51.504;11.548;2024-02-26T16:59:16;31.30;;;17.95;;
64598;SDS011;51008;51.504;11.548;2024-02-26T17:04:17;32.90;;;18.38;;
64598;SDS011;51008;51.504;11.548;2024-02-26T17:09:19;33.60;;;19.25;;
64598;SDS011;51008;51.504;11.548;2024-02-26T17:14:20;29.50;;;17.20;;
64598;SDS011;51008;51.504;11.548;2024-02-26T17:19:21;37.00;;;18.15;;
64598;SDS011;51008;51.504;11.548;2024-02-26T17:24:23;33.85;;;19.42;;
64598;SDS011;51008;51.504;11.548;2024-02-26T17:29:24;42.92;;;20.73;;
64598;SDS011;51008;51.504;11.548;2024-02-26T17:34:25;31.13;;;18.38;;
64598;SDS011;51008;51.504;11.548;2024-02-26T17:39:26;34.72;;;18.30;;
64598;SDS011;51008;51.504;11.548;2024-02-26T17:44:37;35.40;;;18.15;;
64598;SDS011;51008;51.504;11.548;2024-02-26T17:49:38;32.85;;;17.52;;
64598;SDS011;51008;51.504;11.548;2024-02-26T17:54:40;32.70;;;17.70;;
64598;SDS011;51008;51.504;11.548;2024-02-26T17:59:41;26.45;;;16.58;;
64598;SDS011;51008;51.504;11.548;2024-02-26T18:04:42;33.10;;;16.88;;
64598;SDS011;51008;51.504;11.548;2024-02-26T18:09:43;29.88;;;16.85;;
64598;SDS011;51008;51.504;11.548;2024-02-26T18:14:44;30.92;;;16.33;;
64598;SDS011;51008;51.504;11.548;2024-02-26T18:19:45;30.85;;;16.88;;
64598;SDS011;51008;51.504;11.548;2024-02-26T18:24:47;27.60;;;16.05;;
64598;SDS011;51008;51.504;11.548;2024-02-26T18:29:48;28.77;;;15.70;;
64598;SDS011;51008;51.504;11.548;2024-02-26T18:34:49;27.50;;;15.90;;
64598;SDS011;51008;51.504;11.548;2024-02-26T18:39:50;30.48;;;17.17;;
64598;SDS011;51008;51.504;11.548;2024-02-26T18:44:52;29.05;;;16.65;;
64598;SDS011;51008;51.504;11.548;2024-02-26T18:49:53;26.13;;;14.63;;
64598;SDS011;51008;51.504;11.548;2024-02-26T18:54:54;25.85;;;15.50;;
64598;SDS011;51008;51.504;11.548;2024-02-26T18:59:55;31.20;;;15.80;;
64598;SDS011;51008;51.504;11.548;2024-02-26T19:04:56;23.70;;;14.70;;
64598;SDS011;51008;51.504;11.548;2024-02-26T19:09:58;24.25;;;14.30;;
64598;SDS011;51008;51.504;11.548;2024-02-26T19:14:59;25.58;;;14.30;;
64598;SDS011;51008;51.504;11.548;2024-02-26T19:20:00;25.25;;;13.93;;
64598;SDS011;51008;51.504;11.548;2024-02-26T19:25:01;23.42;;;14.05;;
64598;SDS011;51008;51.504;11.548;2024-02-26T19:30:02;23.30;;;13.40;;
64598;SDS011;51008;51.504;11.548;2024-02-26T19:35:04;23.38;;;12.77;;
64598;SDS011;51008;51.504;11.548;2024-02-26T19:40:06;28.13;;;13.40;;
64598;SDS011;51008;51.504;11.548;2024-02-26T19:45:08;23.75;;;12.38;;
64598;SDS011;51008;51.504;11.548;2024-02-26T19:50:10;21.70;;;12.38;;
64598;SDS011;51008;51.504;11.548;2024-02-26T19:55:13;21.00;;;12.48;;
64598;SDS011;51008;51.504;11.548;2024-02-26T20:00:15;19.63;;;12.25;;
64598;SDS011;51008;51.504;11.548;2024-02-26T20:05:16;23.08;;;12.70;;
64598;SDS011;51008;51.504;11.548;2024-02-26T20:10:18;19.75;;;11.68;;
64598;SDS011;51008;51.504;11.548;2024-02-26T20:15:20;20.13;;;11.82;;
64598;SDS011;51008;51.504;11.548;2024-02-26T20:20:21;18.48;;;10.82;;
64598;SDS011;51008;51.504;11.548;2024-02-26T20:25:22;19.95;;;10.95;;
64598;SDS011;51008;51.504;11.548;2024-02-26T20:30:23;21.55;;;12.02;;
64598;SDS011;51008;51.504;11.548;2024-02-26T20:35:24;18.83;;;10.10;;
64598;SDS011;51008;51.504;11.548;2024-02-26T20:40:26;20.02;;;11.15;;
64598;SDS011;51008;51.504;11.548;2024-02-26T20:45:27;23.20;;;11.25;;
64598;SDS011;51008;51.504;11.548;2024-02-26T20:50:28;22.85;;;11.35;;
64598;SDS011;51008;51.504;11.548;2024-02-26T20:55:29;21.30;;;11.18;;
64598;SDS011;51008;51.504;11.548;2024-02-26T21:00:30;21.70;;;11.98;;
64598;SDS011;51008;51.504;11.548;2024-02-26T21:05:32;20.80;;;12.15;;
64598;SDS011;51008;51.504;11.548;2024-02-26T21:10:33;21.10;;;11.85;;
64598;SDS011;51008;51.504;11.548;2024-02-26T21:15:34;22.52;;;12.05;;
64598;SDS011;51008;51.504;11.548;2024-02-26T21:20:35;22.05;;;12.60;;
64598;SDS011;51008;51.504;11.548;2024-02-26T21:25:36;20.88;;;12.48;;
64598;SDS011;51008;51.504;11.548;2024-02-26T21:30:37;25.17;;;13.35;;
64598;SDS011;51008;51.504;11.548;2024-02-26T21:35:38;23.10;;;12.15;;
64598;SDS011;51008;51.504;11.548;2024-02-26T21:40:40;22.02;;;12.23;;
64598;SDS011;51008;51.504;11.548;2024-02-26T21:45:41;20.42;;;11.38;;
64598;SDS011;51008;51.504;11.548;2024-02-26T21:50:42;22.20;;;11.82;;
64598;SDS011;51008;51.504;11.548;2024-02-26T21:55:43;21.55;;;11.70;;
64598;SDS011;51008;51.504;11.548;2024-02-26T22:00:44;21.35;;;11.55;;
64598;SDS011;51008;51.504;11.548;2024-02-26T22:05:46;18.92;;;10.77;;
64598;SDS011;51008;51.504;11.548;2024-02-26T22:10:47;17.77;;;10.38;;
64598;SDS011;51008;51.504;11.548;2024-02-26T22:15:48;22.35;;;12.05;;
64598;SDS011;51008;51.504;11.548;2024-02-26T22:20:49;18.88;;;11.30;;
64598;SDS011;51008;51.504;11.548;2024-02-26T22:25:51;18.25;;;10.75;;
64598;SDS011;51008;51.504;11.548;2024-02-26T22:30:52;18.65;;;10.48;;
64598;SDS011;51008;51.504;11.548;2024-02-26T22:35:53;17.90;;;9.93;;
64598;SDS011;51008;51.504;11.548;2024-02-26T22:40:57;15.38;;;9.20;;
64598;SDS011;51008;51.504;11.548;2024-02-26T22:45:58;18.42;;;9.32;;
64598;SDS011;51008;51.504;11.548;2024-02-26T22:50:59;17.30;;;9.55;;
64598;SDS011;51008;51.504;11.548;2024-02-26T22:56:01;14.77;;;8.50;;
64598;SDS011;51008;51.504;11.548;2024-02-26T23:01:02;15.05;;;8.40;;
64598;SDS011;51008;51.504;11.548;2024-02-26T23:06:03;13.85;;;8.32;;
64598;SDS011;51008;51.504;11.548;2024-02-26T23:11:04;15.27;;;8.20;;
64598;SDS011;51008;51.504;11.548;2024-02-26T23:16:06;13.32;;;7.50;;
64598;SDS011;51008;51.504;11.548;2024-02-26T23:21:07;14.43;;;7.20;;
64598;SDS011;51008;51.504;11.548;2024-02-26T23:26:08;12.55;;;7.15;;
64598;SDS011;51008;51.504;11.548;2024-02-26T23:31:09;12.23;;;7.10;;
64598;SDS011;51008;51.504;11.548;2024-02-26T23:36:10;11.45;;;6.00;;
64598;SDS011;51008;51.504;11.548;2024-02-26T23:41:12;12.23;;;6.80;;
64598;SDS011;51008;51.504;11.548;2024-02-26T23:46:14;9.63;;;6.07;;
64598;SDS011;51008;51.504;11.548;2024-02-26T23:51:15;13.32;;;6.00;;
64598;SDS011;51008;51.504;11.548;2024-02-26T23:56:16;10.00;;;5.50;;
